CDT,Max TemperatureF,Mean TemperatureF,Min TemperatureF,Max Dew PointF,MeanDew PointF,Min DewpointF,Max Humidity, Mean Humidity, Min Humidity, Max Sea Level PressureIn, Mean Sea Level PressureIn, Min Sea Level PressureIn, Max VisibilityMiles, Mean VisibilityMiles, Min VisibilityMiles, Max Wind SpeedMPH, Mean Wind SpeedMPH, Max Gust SpeedMPH,PrecipitationIn, CloudCover, Events, WindDirDegrees
2012-3-1,52,38,23,28,24,19,86,63,34,29.77,29.68,29.62,10,10,10,22,7,28,0.03,1,,31
2012-3-2,45,34,23,24,18,7,87,58,23,29.97,29.83,29.74,10,10,10,31,10,37,0.00,1,,314
2012-3-3,45,30,16,22,17,13,86,61,29,30.00,29.96,29.90,10,10,10,26,9,36,0.00,2,,299
2012-3-4,59,48,36,33,28,20,73,47,34,30.11,29.93,29.81,10,10,7,37,14,45,0.00,3,,303
2012-3-5,69,48,27,29,26,24,88,57,19,30.19,30.05,29.79,10,10,10,25,10,30,0.00,0,,183
2012-3-6,76,50,24,33,24,18,86,49,11,29.74,29.61,29.45,10,10,10,25,7,32,0.00,0,,186
2012-3-7,60,48,36,46,29,20,82,59,45,30.06,29.79,29.42,10,10,7,25,18,32,0.00,6,,352
2012-3-8,52,36,21,22,15,9,84,50,18,30.43,30.35,30.17,10,10,10,20,10,31,0.00,0,,312
2012-3-9,65,43,21,22,15,10,82,41,12,30.48,30.38,30.22,10,10,7,24,8,31,0.00,0,,238
2012-3-10,71,54,38,31,18,9,37,25,15,30.21,30.08,29.94,10,10,10,26,18,36,0.00,0,,204
2012-3-11,47,43,39,43,39,28,95,82,52,29.98,29.81,29.64,10,10,5,22,10,29,0.26,7,Rain,164
2012-3-12,75,54,34,42,36,29,96,63,18,29.92,29.75,29.61,10,9,5,24,9,30,0.08,1,Rain,249
2012-3-13,79,56,34,40,33,26,87,47,15,29.92,29.84,29.71,10,10,10,22,7,25,0.00,0,,161
2012-3-14,76,55,34,35,30,26,87,47,16,29.93,29.84,29.73,10,10,7,17,5,16,0.00,0,,357
2012-3-15,79,56,34,41,34,26,89,51,14,30.00,29.95,29.92,10,10,4,10,5,,0.00,0,,64
2012-3-16,81,58,36,58,44,35,97,63,23,29.97,29.84,29.70,10,6,0,22,6,29,0.00,1,Fog,142
2012-3-17,86,68,50,59,47,22,98,62,9,29.71,29.65,29.57,10,8,0,30,15,38,0.00,1,Fog,162
2012-3-18,79,68,57,60,56,48,93,67,38,29.62,29.57,29.49,10,10,7,36,22,46,0.00,2,,175
2012-3-19,64,58,52,59,49,36,82,70,42,29.59,29.53,29.48,10,9,7,31,20,43,0.02,3,Rain-Thunderstorm,169
2012-3-20,56,48,40,46,37,32,97,64,46,29.93,29.84,29.59,10,10,0,22,11,25,0.00,4,Fog,20
2012-3-21,63,50,37,50,42,30,80,69,57,29.97,29.91,29.85,10,10,10,20,9,25,0.00,7,,26
2012-3-22,59,51,43,55,44,36,97,76,43,29.93,29.88,29.80,10,9,4,21,11,28,0.04,5,Rain,140
2012-3-23,68,50,31,45,36,30,99,68,28,30.00,29.96,29.93,10,8,3,10,3,,0.00,0,,241
2012-3-24,77,56,36,50,43,33,92,64,32,30.07,29.99,29.97,10,10,4,17,4,22,0.00,0,,24
2012-3-25,73,55,37,55,47,36,95,74,47,30.11,30.05,29.93,10,8,3,18,6,26,0.00,2,,148
2012-3-26,82,68,53,56,50,41,96,58,24,29.96,29.77,29.59,10,10,4,34,15,45,0.00,0,,157
2012-3-27,72,58,43,51,27,23,56,31,16,29.94,29.86,29.69,10,10,10,30,13,37,0.00,0,,287
2012-3-28,75,56,36,54,38,29,83,54,26,30.02,29.96,29.85,10,10,10,21,5,26,0.00,1,Thunderstorm,151
2012-3-29,69,56,42,59,47,37,98,76,47,29.85,29.79,29.76,10,8,0,21,8,28,0.00,3,Fog,26
2012-3-30,80,58,35,50,38,32,93,61,18,29.89,29.80,29.69,10,10,3,24,6,34,0.00,0,,261
2012-3-31,84,64,44,48,39,31,75,43,17,29.81,29.75,29.66,10,10,7,14,4,20,0.00,0,,236